sensor_id;sensor_type;location;lat;lon;timestamp;P1;durP1;ratioP1;P2;durP2;ratioP2
21848;SDS011;11089;49.852;19.700;2023-07-22T00:02:20;8.88;;;4.85;;
21848;SDS011;11089;49.852;19.700;2023-07-22T00:05:22;8.30;;;4.90;;
21848;SDS011;11089;49.852;19.700;2023-07-22T00:08:23;7.07;;;4.40;;
21848;SDS011;11089;49.852;19.700;2023-07-22T00:11:24;7.75;;;4.75;;
21848;SDS011;11089;49.852;19.700;2023-07-22T00:14:25;7.18;;;4.80;;
21848;SDS011;11089;49.852;19.700;2023-07-22T00:17:26;6.97;;;4.88;;
21848;SDS011;11089;49.852;19.700;2023-07-22T00:20:27;6.40;;;4.25;;
21848;SDS011;11089;49.852;19.700;2023-07-22T00:23:29;6.35;;;4.93;;
21848;SDS011;11089;49.852;19.700;2023-07-22T00:26:30;8.20;;;5.47;;
21848;SDS011;11089;49.852;19.700;2023-07-22T00:29:31;7.45;;;5.53;;
21848;SDS011;11089;49.852;19.700;2023-07-22T00:32:32;7.20;;;5.88;;
21848;SDS011;11089;49.852;19.700;2023-07-22T00:35:33;6.57;;;5.82;;
21848;SDS011;11089;49.852;19.700;2023-07-22T00:38:34;7.72;;;5.93;;
21848;SDS011;11089;49.852;19.700;2023-07-22T00:41:35;7.53;;;5.55;;
21848;SDS011;11089;49.852;19.700;2023-07-22T00:44:36;8.32;;;5.95;;
21848;SDS011;11089;49.852;19.700;2023-07-22T00:47:37;6.40;;;4.97;;
21848;SDS011;11089;49.852;19.700;2023-07-22T00:50:39;6.40;;;4.90;;
21848;SDS011;11089;49.852;19.700;2023-07-22T00:53:40;8.25;;;5.47;;
21848;SDS011;11089;49.852;19.700;2023-07-22T00:56:41;5.68;;;4.72;;
21848;SDS011;11089;49.852;19.700;2023-07-22T00:59:43;6.38;;;5.05;;
21848;SDS011;11089;49.852;19.700;2023-07-22T01:02:45;8.05;;;5.18;;
21848;SDS011;11089;49.852;19.700;2023-07-22T01:05:46;5.50;;;4.80;;
21848;SDS011;11089;49.852;19.700;2023-07-22T01:08:48;6.63;;;4.57;;
21848;SDS011;11089;49.852;19.700;2023-07-22T01:11:49;6.72;;;4.72;;
21848;SDS011;11089;49.852;19.700;2023-07-22T01:14:50;4.57;;;3.72;;
21848;SDS011;11089;49.852;19.700;2023-07-22T01:17:52;4.57;;;3.85;;
21848;SDS011;11089;49.852;19.700;2023-07-22T01:20:53;4.57;;;3.92;;
21848;SDS011;11089;49.852;19.700;2023-07-22T01:23:54;6.20;;;3.60;;
21848;SDS011;11089;49.852;19.700;2023-07-22T01:26:55;9.85;;;4.68;;
21848;SDS011;11089;49.852;19.700;2023-07-22T01:29:56;4.32;;;3.25;;
21848;SDS011;11089;49.852;19.700;2023-07-22T01:32:57;4.70;;;3.53;;
21848;SDS011;11089;49.852;19.700;2023-07-22T01:35:58;4.65;;;3.75;;
21848;SDS011;11089;49.852;19.700;2023-07-22T01:39:00;3.83;;;3.28;;
21848;SDS011;11089;49.852;19.700;2023-07-22T01:42:01;5.82;;;4.07;;
21848;SDS011;11089;49.852;19.700;2023-07-22T01:45:02;5.15;;;3.70;;
21848;SDS011;11089;49.852;19.700;2023-07-22T01:48:06;5.50;;;3.60;;
21848;SDS011;11089;49.852;19.700;2023-07-22T01:51:07;6.90;;;3.20;;
21848;SDS011;11089;49.852;19.700;2023-07-22T01:54:09;5.20;;;3.63;;
21848;SDS011;11089;49.852;19.700;2023-07-22T01:57:10;5.68;;;4.18;;
21848;SDS011;11089;49.852;19.700;2023-07-22T02:00:11;5.07;;;3.72;;
21848;SDS011;11089;49.852;19.700;2023-07-22T02:03:12;5.15;;;3.28;;
21848;SDS011;11089;49.852;19.700;2023-07-22T02:06:13;5.30;;;3.10;;
21848;SDS011;11089;49.852;19.700;2023-07-22T02:09:14;4.93;;;3.20;;
21848;SDS011;11089;49.852;19.700;2023-07-22T02:12:15;4.03;;;3.28;;
21848;SDS011;11089;49.852;19.700;2023-07-22T02:15:16;4.05;;;3.10;;
21848;SDS011;11089;49.852;19.700;2023-07-22T02:18:16;3.85;;;3.20;;
21848;SDS011;11089;49.852;19.700;2023-07-22T02:21:17;4.45;;;3.55;;
21848;SDS011;11089;49.852;19.700;2023-07-22T02:24:18;5.95;;;3.78;;
21848;SDS011;11089;49.852;19.700;2023-07-22T02:27:19;6.15;;;3.40;;
21848;SDS011;11089;49.852;19.700;2023-07-22T02:30:20;4.38;;;3.53;;
21848;SDS011;11089;49.852;19.700;2023-07-22T02:33:21;5.00;;;3.53;;
21848;SDS011;11089;49.852;19.700;2023-07-22T02:36:22;8.15;;;3.28;;
21848;SDS011;11089;49.852;19.700;2023-07-22T02:39:23;5.22;;;3.30;;
21848;SDS011;11089;49.852;19.700;2023-07-22T02:42:24;3.95;;;3.28;;
21848;SDS011;11089;49.852;19.700;2023-07-22T02:45:24;4.28;;;3.22;;
21848;SDS011;11089;49.852;19.700;2023-07-22T02:48:25;5.47;;;3.50;;
21848;SDS011;11089;49.852;19.700;2023-07-22T02:51:26;6.68;;;3.38;;
21848;SDS011;11089;49.852;19.700;2023-07-22T02:54:27;7.00;;;3.50;;
21848;SDS011;11089;49.852;19.700;2023-07-22T02:57:28;5.63;;;3.67;;
21848;SDS011;11089;49.852;19.700;2023-07-22T03:00:28;4.90;;;3.50;;
21848;SDS011;11089;49.852;19.700;2023-07-22T03:03:30;7.70;;;3.80;;
21848;SDS011;11089;49.852;19.700;2023-07-22T03:06:33;4.70;;;3.55;;
21848;SDS011;11089;49.852;19.700;2023-07-22T03:09:34;5.50;;;3.60;;
21848;SDS011;11089;49.852;19.700;2023-07-22T03:12:35;7.03;;;3.58;;
21848;SDS011;11089;49.852;19.700;2023-07-22T03:15:36;6.47;;;3.50;;
21848;SDS011;11089;49.852;19.700;2023-07-22T03:18:37;5.28;;;3.83;;
21848;SDS011;11089;49.852;19.700;2023-07-22T03:21:40;3.85;;;3.17;;
21848;SDS011;11089;49.852;19.700;2023-07-22T03:24:40;5.63;;;3.83;;
21848;SDS011;11089;49.852;19.700;2023-07-22T03:27:41;4.45;;;3.55;;
21848;SDS011;11089;49.852;19.700;2023-07-22T03:30:43;4.68;;;4.00;;
21848;SDS011;11089;49.852;19.700;2023-07-22T03:33:44;6.03;;;3.63;;
21848;SDS011;11089;49.852;19.700;2023-07-22T03:36:46;6.20;;;3.22;;
21848;SDS011;11089;49.852;19.700;2023-07-22T03:39:47;4.53;;;3.47;;
21848;SDS011;11089;49.852;19.700;2023-07-22T03:42:48;5.18;;;3.78;;
21848;SDS011;11089;49.852;19.700;2023-07-22T03:45:50;6.53;;;3.90;;
21848;SDS011;11089;49.852;19.700;2023-07-22T03:48:51;6.85;;;4.15;;
21848;SDS011;11089;49.852;19.700;2023-07-22T03:51:52;4.38;;;3.55;;
21848;SDS011;11089;49.852;19.700;2023-07-22T03:54:53;3.97;;;3.58;;
21848;SDS011;11089;49.852;19.700;2023-07-22T03:57:54;8.70;;;3.67;;
21848;SDS011;11089;49.852;19.700;2023-07-22T04:00:55;4.80;;;3.83;;
21848;SDS011;11089;49.852;19.700;2023-07-22T04:03:55;5.25;;;3.80;;
21848;SDS011;11089;49.852;19.700;2023-07-22T04:06:56;7.68;;;3.78;;
21848;SDS011;11089;49.852;19.700;2023-07-22T04:09:57;5.03;;;3.45;;
21848;SDS011;11089;49.852;19.700;2023-07-22T04:12:58;4.63;;;3.60;;
21848;SDS011;11089;49.852;19.700;2023-07-22T04:15:59;5.53;;;3.58;;
21848;SDS011;11089;49.852;19.700;2023-07-22T04:19:00;4.80;;;4.10;;
21848;SDS011;11089;49.852;19.700;2023-07-22T04:22:01;6.13;;;3.58;;
21848;SDS011;11089;49.852;19.700;2023-07-22T04:25:04;6.15;;;3.95;;
21848;SDS011;11089;49.852;19.700;2023-07-22T04:28:06;5.93;;;4.00;;
21848;SDS011;11089;49.852;19.700;2023-07-22T04:31:08;6.05;;;4.18;;
21848;SDS011;11089;49.852;19.700;2023-07-22T04:34:09;6.00;;;4.50;;
21848;SDS011;11089;49.852;19.700;2023-07-22T04:37:12;7.03;;;5.10;;
21848;SDS011;11089;49.852;19.700;2023-07-22T04:40:13;8.88;;;5.43;;
21848;SDS011;11089;49.852;19.700;2023-07-22T04:43:16;7.50;;;5.43;;
21848;SDS011;11089;49.852;19.700;2023-07-22T04:46:17;8.75;;;5.82;;
21848;SDS011;11089;49.852;19.700;2023-07-22T04:49:18;10.15;;;6.60;;
21848;SDS011;11089;49.852;19.700;2023-07-22T04:52:19;9.57;;;6.43;;
21848;SDS011;11089;49.852;19.700;2023-07-22T04:55:20;8.45;;;5.90;;
21848;SDS011;11089;49.852;19.700;2023-07-22T04:58:21;8.30;;;5.78;;
21848;SDS011;11089;49.852;19.700;2023-07-22T05:01:22;8.18;;;5.75;;
21848;SDS011;11089;49.852;19.700;2023-07-22T05:04:23;8.70;;;6.18;;
21848;SDS011;11089;49.852;19.700;2023-07-22T05:07:24;6.97;;;5.78;;
21848;SDS011;11089;49.852;19.700;2023-07-22T05:10:25;6.65;;;5.25;;
21848;SDS011;11089;49.852;19.700;2023-07-22T05:13:26;7.53;;;5.60;;
21848;SDS011;11089;49.852;19.700;2023-07-22T05:16:26;6.63;;;4.88;;
21848;SDS011;11089;49.852;19.700;2023-07-22T05:19:27;6.78;;;4.53;;
21848;SDS011;11089;49.852;19.700;2023-07-22T05:22:28;7.70;;;4.95;;
21848;SDS011;11089;49.852;19.700;2023-07-22T05:25:29;13.57;;;5.57;;
21848;SDS011;11089;49.852;19.700;2023-07-22T05:28:30;6.22;;;4.75;;
21848;SDS011;11089;49.852;19.700;2023-07-22T05:31:31;9.73;;;4.55;;
21848;SDS011;11089;49.852;19.700;2023-07-22T05:34:32;5.95;;;4.63;;
21848;SDS011;11089;49.852;19.700;2023-07-22T05:37:32;8.02;;;4.30;;
21848;SDS011;11089;49.852;19.700;2023-07-22T05:40:33;8.25;;;4.65;;
21848;SDS011;11089;49.852;19.700;2023-07-22T05:43:34;5.78;;;4.53;;
21848;SDS011;11089;49.852;19.700;2023-07-22T05:46:35;6.38;;;4.20;;
21848;SDS011;11089;49.852;19.700;2023-07-22T05:49:36;6.40;;;4.68;;
21848;SDS011;11089;49.852;19.700;2023-07-22T05:52:37;8.23;;;5.00;;
21848;SDS011;11089;49.852;19.700;2023-07-22T05:55:38;8.45;;;4.95;;
21848;SDS011;11089;49.852;19.700;2023-07-22T05:58:39;6.50;;;4.75;;
21848;SDS011;11089;49.852;19.700;2023-07-22T06:01:40;8.52;;;4.47;;
21848;SDS011;11089;49.852;19.700;2023-07-22T06:04:40;7.53;;;5.07;;
21848;SDS011;11089;49.852;19.700;2023-07-22T06:07:41;8.40;;;5.20;;
21848;SDS011;11089;49.852;19.700;2023-07-22T06:10:42;8.27;;;5.65;;
21848;SDS011;11089;49.852;19.700;2023-07-22T06:13:44;11.60;;;4.75;;
21848;SDS011;11089;49.852;19.700;2023-07-22T06:16:45;15.50;;;5.90;;
21848;SDS011;11089;49.852;19.700;2023-07-22T06:19:46;9.73;;;6.22;;
21848;SDS011;11089;49.852;19.700;2023-07-22T06:22:47;7.60;;;5.13;;
21848;SDS011;11089;49.852;19.700;2023-07-22T06:25:47;10.35;;;5.57;;
21848;SDS011;11089;49.852;19.700;2023-07-22T06:28:48;7.70;;;5.00;;
21848;SDS011;11089;49.852;19.700;2023-07-22T06:31:49;9.40;;;5.00;;
21848;SDS011;11089;49.852;19.700;2023-07-22T06:34:50;9.85;;;5.03;;
21848;SDS011;11089;49.852;19.700;2023-07-22T06:37:51;7.22;;;4.82;;
21848;SDS011;11089;49.852;19.700;2023-07-22T06:40:52;6.07;;;4.78;;
21848;SDS011;11089;49.852;19.700;2023-07-22T06:43:53;6.32;;;4.65;;
21848;SDS011;11089;49.852;19.700;2023-07-22T06:46:54;7.22;;;4.15;;
21848;SDS011;11089;49.852;19.700;2023-07-22T06:49:55;6.68;;;4.45;;
21848;SDS011;11089;49.852;19.700;2023-07-22T06:52:56;7.68;;;4.43;;
21848;SDS011;11089;49.852;19.700;2023-07-22T06:55:57;6.72;;;3.97;;
21848;SDS011;11089;49.852;19.700;2023-07-22T06:58:58;8.02;;;4.60;;
21848;SDS011;11089;49.852;19.700;2023-07-22T07:01:58;6.93;;;4.20;;
21848;SDS011;11089;49.852;19.700;2023-07-22T07:04:59;4.47;;;3.97;;
21848;SDS011;11089;49.852;19.700;2023-07-22T07:08:00;9.07;;;4.68;;
21848;SDS011;11089;49.852;19.700;2023-07-22T07:11:01;6.75;;;4.13;;
21848;SDS011;11089;49.852;19.700;2023-07-22T07:14:02;9.93;;;4.28;;
21848;SDS011;11089;49.852;19.700;2023-07-22T07:17:03;4.65;;;4.15;;
21848;SDS011;11089;49.852;19.700;2023-07-22T07:20:05;5.28;;;4.00;;
21848;SDS011;11089;49.852;19.700;2023-07-22T07:23:06;8.98;;;4.00;;
21848;SDS011;11089;49.852;19.700;2023-07-22T07:26:07;5.50;;;4.13;;
21848;SDS011;11089;49.852;19.700;2023-07-22T07:29:07;5.28;;;3.80;;
21848;SDS011;11089;49.852;19.700;2023-07-22T07:32:08;4.25;;;3.85;;
21848;SDS011;11089;49.852;19.700;2023-07-22T07:35:10;5.63;;;3.45;;
21848;SDS011;11089;49.852;19.700;2023-07-22T07:38:11;7.88;;;3.70;;
21848;SDS011;11089;49.852;19.700;2023-07-22T07:41:12;7.03;;;4.32;;
21848;SDS011;11089;49.852;19.700;2023-07-22T07:44:13;9.52;;;4.45;;
21848;SDS011;11089;49.852;19.700;2023-07-22T07:47:14;6.25;;;4.00;;
21848;SDS011;11089;49.852;19.700;2023-07-22T07:50:15;5.97;;;4.00;;
21848;SDS011;11089;49.852;19.700;2023-07-22T07:53:16;4.10;;;3.70;;
21848;SDS011;11089;49.852;19.700;2023-07-22T07:56:17;7.75;;;3.85;;
21848;SDS011;11089;49.852;19.700;2023-07-22T07:59:19;5.53;;;3.47;;
21848;SDS011;11089;49.852;19.700;2023-07-22T08:02:20;5.45;;;3.53;;
21848;SDS011;11089;49.852;19.700;2023-07-22T08:05:21;8.85;;;3.78;;
21848;SDS011;11089;49.852;19.700;2023-07-22T08:08:22;10.68;;;4.03;;
21848;SDS011;11089;49.852;19.700;2023-07-22T08:11:23;5.97;;;3.53;;
21848;SDS011;11089;49.852;19.700;2023-07-22T08:14:24;6.45;;;3.72;;
21848;SDS011;11089;49.852;19.700;2023-07-22T08:17:25;7.30;;;3.53;;
21848;SDS011;11089;49.852;19.700;2023-07-22T08:20:26;4.90;;;3.47;;
21848;SDS011;11089;49.852;19.700;2023-07-22T08:23:26;8.45;;;3.38;;
21848;SDS011;11089;49.852;19.700;2023-07-22T08:26:27;6.95;;;3.78;;
21848;SDS011;11089;49.852;19.700;2023-07-22T08:29:28;5.55;;;3.20;;
21848;SDS011;11089;49.852;19.700;2023-07-22T08:32:29;3.60;;;3.30;;
21848;SDS011;11089;49.852;19.700;2023-07-22T08:35:30;4.95;;;3.65;;
21848;SDS011;11089;49.852;19.700;2023-07-22T08:38:30;4.78;;;3.40;;
21848;SDS011;11089;49.852;19.700;2023-07-22T08:41:31;4.60;;;3.13;;
21848;SDS011;11089;49.852;19.700;2023-07-22T08:44:33;4.72;;;3.30;;
21848;SDS011;11089;49.852;19.700;2023-07-22T08:47:39;5.18;;;3.20;;
21848;SDS011;11089;49.852;19.700;2023-07-22T08:50:49;4.70;;;2.75;;
21848;SDS011;11089;49.852;19.700;2023-07-22T08:53:50;5.40;;;3.13;;
21848;SDS011;11089;49.852;19.700;2023-07-22T08:56:53;4.40;;;3.13;;
21848;SDS011;11089;49.852;19.700;2023-07-22T08:59:56;4.43;;;3.20;;
21848;SDS011;11089;49.852;19.700;2023-07-22T09:02:58;6.03;;;2.85;;
21848;SDS011;11089;49.852;19.700;2023-07-22T09:05:59;4.00;;;3.35;;
21848;SDS011;11089;49.852;19.700;2023-07-22T09:09:02;5.55;;;3.10;;
21848;SDS011;11089;49.852;19.700;2023-07-22T09:12:08;4.45;;;2.92;;
21848;SDS011;11089;49.852;19.700;2023-07-22T09:15:09;4.13;;;2.78;;
21848;SDS011;11089;49.852;19.700;2023-07-22T09:18:12;3.20;;;2.80;;
21848;SDS011;11089;49.852;19.700;2023-07-22T09:21:15;4.25;;;2.90;;
21848;SDS011;11089;49.852;19.700;2023-07-22T09:24:25;2.55;;;2.35;;
21848;SDS011;11089;49.852;19.700;2023-07-22T09:27:34;4.30;;;2.70;;
21848;SDS011;11089;49.852;19.700;2023-07-22T09:30:35;6.18;;;2.70;;
21848;SDS011;11089;49.852;19.700;2023-07-22T09:33:38;10.63;;;2.65;;
21848;SDS011;11089;49.852;19.700;2023-07-22T09:39:57;3.40;;;2.40;;
21848;SDS011;11089;49.852;19.700;2023-07-22T09:43:00;3.38;;;2.40;;
21848;SDS011;11089;49.852;19.700;2023-07-22T09:46:05;6.03;;;2.63;;
21848;SDS011;11089;49.852;19.700;2023-07-22T09:49:12;3.50;;;2.40;;
21848;SDS011;11089;49.852;19.700;2023-07-22T09:52:13;2.83;;;2.53;;
21848;SDS011;11089;49.852;19.700;2023-07-22T09:55:14;3.08;;;2.25;;
21848;SDS011;11089;49.852;19.700;2023-07-22T09:58:18;2.45;;;2.25;;
21848;SDS011;11089;49.852;19.700;2023-07-22T10:01:19;4.72;;;2.55;;
21848;SDS011;11089;49.852;19.700;2023-07-22T10:04:23;2.50;;;2.30;;
21848;SDS011;11089;49.852;19.700;2023-07-22T10:07:28;2.63;;;2.42;;
21848;SDS011;11089;49.852;19.700;2023-07-22T10:10:31;3.15;;;2.63;;
21848;SDS011;11089;49.852;19.700;2023-07-22T10:13:36;2.97;;;2.40;;
21848;SDS011;11089;49.852;19.700;2023-07-22T10:16:37;3.30;;;2.17;;
21848;SDS011;11089;49.852;19.700;2023-07-22T10:19:38;7.88;;;2.47;;
21848;SDS011;11089;49.852;19.700;2023-07-22T10:22:39;6.47;;;2.63;;
21848;SDS011;11089;49.852;19.700;2023-07-22T10:25:44;3.55;;;2.33;;
21848;SDS011;11089;49.852;19.700;2023-07-22T10:28:48;4.07;;;2.85;;
21848;SDS011;11089;49.852;19.700;2023-07-22T10:31:48;2.58;;;2.38;;
21848;SDS011;11089;49.852;19.700;2023-07-22T10:34:53;2.95;;;2.30;;
21848;SDS011;11089;49.852;19.700;2023-07-22T10:37:54;2.65;;;2.25;;
21848;SDS011;11089;49.852;19.700;2023-07-22T10:40:55;9.55;;;2.60;;
21848;SDS011;11089;49.852;19.700;2023-07-22T10:43:57;3.60;;;2.53;;
21848;SDS011;11089;49.852;19.700;2023-07-22T10:46:59;4.90;;;2.28;;
21848;SDS011;11089;49.852;19.700;2023-07-22T10:50:06;3.95;;;2.50;;
21848;SDS011;11089;49.852;19.700;2023-07-22T10:53:11;4.85;;;2.63;;
21848;SDS011;11089;49.852;19.700;2023-07-22T10:56:23;3.60;;;2.30;;
21848;SDS011;11089;49.852;19.700;2023-07-22T10:59:28;2.90;;;2.33;;
21848;SDS011;11089;49.852;19.700;2023-07-22T11:02:34;3.15;;;2.30;;
21848;SDS011;11089;49.852;19.700;2023-07-22T11:08:51;5.03;;;2.58;;
21848;SDS011;11089;49.852;19.700;2023-07-22T11:11:52;3.72;;;2.13;;
21848;SDS011;11089;49.852;19.700;2023-07-22T11:15:04;3.35;;;2.30;;
21848;SDS011;11089;49.852;19.700;2023-07-22T11:18:06;2.97;;;2.00;;
21848;SDS011;11089;49.852;19.700;2023-07-22T11:21:10;2.88;;;1.92;;
21848;SDS011;11089;49.852;19.700;2023-07-22T11:24:12;3.05;;;2.30;;
21848;SDS011;11089;49.852;19.700;2023-07-22T11:27:13;2.50;;;1.95;;
21848;SDS011;11089;49.852;19.700;2023-07-22T11:30:15;3.47;;;2.05;;
21848;SDS011;11089;49.852;19.700;2023-07-22T11:33:16;2.75;;;2.00;;
21848;SDS011;11089;49.852;19.700;2023-07-22T11:36:17;3.50;;;2.13;;
21848;SDS011;11089;49.852;19.700;2023-07-22T11:39:19;2.05;;;1.85;;
21848;SDS011;11089;49.852;19.700;2023-07-22T11:42:23;2.70;;;2.00;;
21848;SDS011;11089;49.852;19.700;2023-07-22T11:45:24;3.05;;;2.15;;
21848;SDS011;11089;49.852;19.700;2023-07-22T11:48:25;3.97;;;1.90;;
21848;SDS011;11089;49.852;19.700;2023-07-22T11:51:25;3.03;;;1.73;;
21848;SDS011;11089;49.852;19.700;2023-07-22T11:54:27;2.28;;;1.80;;
21848;SDS011;11089;49.852;19.700;2023-07-22T11:57:28;2.22;;;2.00;;
21848;SDS011;11089;49.852;19.700;2023-07-22T12:00:29;2.25;;;1.85;;
21848;SDS011;11089;49.852;19.700;2023-07-22T12:03:31;2.47;;;1.90;;
21848;SDS011;11089;49.852;19.700;2023-07-22T12:06:33;2.28;;;2.08;;
21848;SDS011;11089;49.852;19.700;2023-07-22T12:09:34;2.22;;;1.70;;
21848;SDS011;11089;49.852;19.700;2023-07-22T12:15:37;2.05;;;1.85;;
21848;SDS011;11089;49.852;19.700;2023-07-22T12:18:41;2.10;;;1.90;;
21848;SDS011;11089;49.852;19.700;2023-07-22T12:21:45;2.25;;;1.92;;
21848;SDS011;11089;49.852;19.700;2023-07-22T12:24:48;5.57;;;2.28;;
21848;SDS011;11089;49.852;19.700;2023-07-22T12:27:49;3.22;;;2.20;;
21848;SDS011;11089;49.852;19.700;2023-07-22T12:30:50;3.75;;;2.00;;
21848;SDS011;11089;49.852;19.700;2023-07-22T12:33:51;2.28;;;2.08;;
21848;SDS011;11089;49.852;19.700;2023-07-22T12:36:52;5.85;;;2.13;;
21848;SDS011;11089;49.852;19.700;2023-07-22T12:39:53;2.38;;;2.17;;
21848;SDS011;11089;49.852;19.700;2023-07-22T12:42:54;4.00;;;2.13;;
21848;SDS011;11089;49.852;19.700;2023-07-22T12:45:55;2.05;;;1.80;;
21848;SDS011;11089;49.852;19.700;2023-07-22T12:48:55;6.07;;;2.50;;
21848;SDS011;11089;49.852;19.700;2023-07-22T12:51:56;2.67;;;2.38;;
21848;SDS011;11089;49.852;19.700;2023-07-22T12:55:03;3.42;;;1.92;;
21848;SDS011;11089;49.852;19.700;2023-07-22T12:58:04;2.65;;;2.22;;
21848;SDS011;11089;49.852;19.700;2023-07-22T13:01:05;2.40;;;2.20;;
21848;SDS011;11089;49.852;19.700;2023-07-22T13:04:06;4.20;;;2.30;;
21848;SDS011;11089;49.852;19.700;2023-07-22T13:07:07;4.65;;;2.55;;
21848;SDS011;11089;49.852;19.700;2023-07-22T13:10:08;2.50;;;2.20;;
21848;SDS011;11089;49.852;19.700;2023-07-22T13:13:10;4.82;;;2.70;;
21848;SDS011;11089;49.852;19.700;2023-07-22T13:16:11;2.63;;;2.40;;
21848;SDS011;11089;49.852;19.700;2023-07-22T13:19:12;3.05;;;2.75;;
21848;SDS011;11089;49.852;19.700;2023-07-22T13:22:13;2.95;;;2.53;;
21848;SDS011;11089;49.852;19.700;2023-07-22T13:25:14;2.38;;;2.15;;
21848;SDS011;11089;49.852;19.700;2023-07-22T13:28:14;3.70;;;2.70;;
21848;SDS011;11089;49.852;19.700;2023-07-22T13:31:15;6.00;;;2.42;;
21848;SDS011;11089;49.852;19.700;2023-07-22T13:34:16;3.72;;;2.63;;
21848;SDS011;11089;49.852;19.700;2023-07-22T13:37:17;3.75;;;2.47;;
21848;SDS011;11089;49.852;19.700;2023-07-22T13:40:17;3.17;;;2.50;;
21848;SDS011;11089;49.852;19.700;2023-07-22T13:43:18;4.28;;;2.60;;
21848;SDS011;11089;49.852;19.700;2023-07-22T13:46:19;3.72;;;2.42;;
21848;SDS011;11089;49.852;19.700;2023-07-22T13:49:20;3.13;;;2.70;;
21848;SDS011;11089;49.852;19.700;2023-07-22T13:52:21;3.08;;;2.70;;
21848;SDS011;11089;49.852;19.700;2023-07-22T13:55:21;4.25;;;2.80;;
21848;SDS011;11089;49.852;19.700;2023-07-22T13:58:22;3.35;;;2.40;;
21848;SDS011;11089;49.852;19.700;2023-07-22T14:01:23;4.88;;;2.60;;
21848;SDS011;11089;49.852;19.700;2023-07-22T14:04:24;4.53;;;3.13;;
21848;SDS011;11089;49.852;19.700;2023-07-22T14:07:24;3.58;;;2.67;;
21848;SDS011;11089;49.852;19.700;2023-07-22T14:10:25;3.25;;;2.75;;
21848;SDS011;11089;49.852;19.700;2023-07-22T14:13:26;5.68;;;3.17;;
21848;SDS011;11089;49.852;19.700;2023-07-22T14:16:27;3.53;;;3.15;;
21848;SDS011;11089;49.852;19.700;2023-07-22T14:19:27;5.68;;;2.85;;
21848;SDS011;11089;49.852;19.700;2023-07-22T14:22:28;2.95;;;2.53;;
21848;SDS011;11089;49.852;19.700;2023-07-22T14:25:29;4.82;;;2.55;;
21848;SDS011;11089;49.852;19.700;2023-07-22T14:28:30;5.22;;;3.05;;
21848;SDS011;11089;49.852;19.700;2023-07-22T14:31:31;4.22;;;3.00;;
21848;SDS011;11089;49.852;19.700;2023-07-22T14:34:31;2.95;;;2.60;;
21848;SDS011;11089;49.852;19.700;2023-07-22T14:37:32;4.28;;;2.60;;
21848;SDS011;11089;49.852;19.700;2023-07-22T14:40:33;3.13;;;2.80;;
21848;SDS011;11089;49.852;19.700;2023-07-22T14:43:34;4.95;;;3.08;;
21848;SDS011;11089;49.852;19.700;2023-07-22T14:46:35;4.60;;;3.58;;
21848;SDS011;11089;49.852;19.700;2023-07-22T14:49:36;5.00;;;3.55;;
21848;SDS011;11089;49.852;19.700;2023-07-22T14:52:37;4.05;;;3.40;;
21848;SDS011;11089;49.852;19.700;2023-07-22T14:55:38;4.40;;;3.17;;
21848;SDS011;11089;49.852;19.700;2023-07-22T14:58:39;3.28;;;2.97;;
21848;SDS011;11089;49.852;19.700;2023-07-22T15:01:42;7.07;;;3.05;;
21848;SDS011;11089;49.852;19.700;2023-07-22T15:04:43;4.47;;;2.78;;
21848;SDS011;11089;49.852;19.700;2023-07-22T15:07:43;2.97;;;2.63;;
21848;SDS011;11089;49.852;19.700;2023-07-22T15:10:44;5.88;;;3.08;;
21848;SDS011;11089;49.852;19.700;2023-07-22T15:13:45;7.50;;;3.10;;
21848;SDS011;11089;49.852;19.700;2023-07-22T15:16:46;3.70;;;2.90;;
21848;SDS011;11089;49.852;19.700;2023-07-22T15:19:47;4.07;;;2.80;;
21848;SDS011;11089;49.852;19.700;2023-07-22T15:22:48;3.33;;;2.47;;
21848;SDS011;11089;49.852;19.700;2023-07-22T15:25:48;4.28;;;2.80;;
21848;SDS011;11089;49.852;19.700;2023-07-22T15:28:49;4.47;;;2.55;;
21848;SDS011;11089;49.852;19.700;2023-07-22T15:31:50;5.13;;;2.72;;
21848;SDS011;11089;49.852;19.700;2023-07-22T15:34:51;3.67;;;2.97;;
21848;SDS011;11089;49.852;19.700;2023-07-22T15:37:51;5.32;;;2.97;;
21848;SDS011;11089;49.852;19.700;2023-07-22T15:40:54;4.50;;;2.85;;
21848;SDS011;11089;49.852;19.700;2023-07-22T15:43:55;8.13;;;2.78;;
21848;SDS011;11089;49.852;19.700;2023-07-22T15:46:56;4.07;;;2.90;;
21848;SDS011;11089;49.852;19.700;2023-07-22T15:49:57;4.50;;;2.58;;
21848;SDS011;11089;49.852;19.700;2023-07-22T15:52:58;4.50;;;3.13;;
21848;SDS011;11089;49.852;19.700;2023-07-22T15:56:05;5.72;;;3.40;;
21848;SDS011;11089;49.852;19.700;2023-07-22T15:59:06;6.32;;;3.65;;
21848;SDS011;11089;49.852;19.700;2023-07-22T16:02:07;5.95;;;3.13;;
21848;SDS011;11089;49.852;19.700;2023-07-22T16:05:08;7.13;;;3.10;;
21848;SDS011;11089;49.852;19.700;2023-07-22T16:08:09;6.45;;;3.38;;
21848;SDS011;11089;49.852;19.700;2023-07-22T16:11:10;4.88;;;3.50;;
21848;SDS011;11089;49.852;19.700;2023-07-22T16:14:11;3.38;;;2.95;;
21848;SDS011;11089;49.852;19.700;2023-07-22T16:17:12;3.75;;;3.10;;
21848;SDS011;11089;49.852;19.700;2023-07-22T16:20:13;4.85;;;3.50;;
21848;SDS011;11089;49.852;19.700;2023-07-22T16:23:13;5.15;;;3.88;;
21848;SDS011;11089;49.852;19.700;2023-07-22T16:26:14;5.57;;;3.47;;
21848;SDS011;11089;49.852;19.700;2023-07-22T16:29:15;5.53;;;3.80;;
21848;SDS011;11089;49.852;19.700;2023-07-22T16:32:16;5.38;;;3.45;;
21848;SDS011;11089;49.852;19.700;2023-07-22T16:35:17;4.70;;;3.42;;
21848;SDS011;11089;49.852;19.700;2023-07-22T16:38:18;4.30;;;3.60;;
21848;SDS011;11089;49.852;19.700;2023-07-22T16:41:18;4.85;;;3.58;;
21848;SDS011;11089;49.852;19.700;2023-07-22T16:44:19;4.38;;;3.55;;
21848;SDS011;11089;49.852;19.700;2023-07-22T16:47:22;5.65;;;3.42;;
21848;SDS011;11089;49.852;19.700;2023-07-22T16:50:23;5.32;;;3.90;;
21848;SDS011;11089;49.852;19.700;2023-07-22T16:53:24;6.97;;;4.65;;
21848;SDS011;11089;49.852;19.700;2023-07-22T16:56:25;6.82;;;4.78;;
21848;SDS011;11089;49.852;19.700;2023-07-22T16:59:25;7.82;;;4.85;;
21848;SDS011;11089;49.852;19.700;2023-07-22T17:02:26;6.15;;;4.45;;
21848;SDS011;11089;49.852;19.700;2023-07-22T17:05:27;6.15;;;4.03;;
21848;SDS011;11089;49.852;19.700;2023-07-22T17:08:28;4.88;;;3.53;;
21848;SDS011;11089;49.852;19.700;2023-07-22T17:11:29;4.82;;;3.25;;
21848;SDS011;11089;49.852;19.700;2023-07-22T17:14:31;7.55;;;4.28;;
21848;SDS011;11089;49.852;19.700;2023-07-22T17:17:33;11.32;;;5.85;;
21848;SDS011;11089;49.852;19.700;2023-07-22T17:20:34;9.85;;;6.32;;
21848;SDS011;11089;49.852;19.700;2023-07-22T17:23:34;7.85;;;5.32;;
21848;SDS011;11089;49.852;19.700;2023-07-22T17:26:35;4.47;;;4.03;;
21848;SDS011;11089;49.852;19.700;2023-07-22T17:29:36;4.28;;;3.75;;
21848;SDS011;11089;49.852;19.700;2023-07-22T17:32:37;4.65;;;4.00;;
21848;SDS011;11089;49.852;19.700;2023-07-22T17:35:38;7.07;;;4.82;;
21848;SDS011;11089;49.852;19.700;2023-07-22T17:38:39;5.38;;;4.70;;
21848;SDS011;11089;49.852;19.700;2023-07-22T17:41:40;11.30;;;6.38;;
21848;SDS011;11089;49.852;19.700;2023-07-22T17:44:41;6.10;;;4.35;;
21848;SDS011;11089;49.852;19.700;2023-07-22T17:47:42;5.47;;;3.90;;
21848;SDS011;11089;49.852;19.700;2023-07-22T17:50:43;5.13;;;3.75;;
21848;SDS011;11089;49.852;19.700;2023-07-22T17:53:44;5.43;;;4.35;;
21848;SDS011;11089;49.852;19.700;2023-07-22T17:56:45;20.67;;;12.50;;
21848;SDS011;11089;49.852;19.700;2023-07-22T17:59:45;48.00;;;29.17;;
21848;SDS011;11089;49.852;19.700;2023-07-22T18:02:46;26.83;;;18.15;;
21848;SDS011;11089;49.852;19.700;2023-07-22T18:05:47;30.90;;;19.85;;